createdAt,value
2019-04-22T00:00:40.489Z,27.63
2019-04-22T00:03:10.653Z,23.50
2019-04-22T00:05:54.964Z,36.23
2019-04-22T00:08:36.239Z,19.20
2019-04-22T00:11:05.013Z,25.47
2019-04-22T00:13:40.779Z,24.57
2019-04-22T00:15:59.322Z,21.93
2019-04-22T00:18:46.801Z,25.10
2019-04-22T00:21:04.861Z,23.23
2019-04-22T00:23:30.711Z,24.37
2019-04-22T00:26:08.714Z,17.90
2019-04-22T00:28:36.596Z,22.80
2019-04-22T00:31:11.831Z,21.97
2019-04-22T00:33:32.396Z,19.37
2019-04-22T00:36:08.742Z,18.67
2019-04-22T00:38:42.075Z,22.50
2019-04-22T00:41:10.349Z,26.53
2019-04-22T00:43:39.232Z,23.77
2019-04-22T00:46:02.771Z,25.17
2019-04-22T00:49:20.349Z,19.07
2019-04-22T00:56:20.175Z,26.77
2019-04-22T00:58:43.949Z,22.43
2019-04-22T01:01:14.089Z,23.97
2019-04-22T01:03:51.102Z,23.77
2019-04-22T01:06:16.027Z,20.30
2019-04-22T01:08:51.429Z,26.90
2019-04-22T01:11:17.132Z,22.90
2019-04-22T01:13:44.340Z,19.73
2019-04-22T01:16:20.539Z,22.33
2019-04-22T01:18:44.122Z,16.97
2019-04-22T01:23:40.811Z,25.00
2019-04-22T01:26:13.917Z,23.67
2019-04-22T01:28:39.912Z,20.83
2019-04-22T01:31:04.711Z,29.20
2019-04-22T01:33:36.181Z,29.53
2019-04-22T01:36:15.551Z,32.13
2019-04-22T01:38:53.209Z,37.83
2019-04-22T01:41:23.060Z,34.73
2019-04-22T01:43:59.083Z,31.17
2019-04-22T01:46:25.904Z,28.97
2019-04-22T01:48:55.302Z,38.67
2019-04-22T01:51:28.317Z,24.67
2019-04-22T01:54:00.229Z,36.27
2019-04-22T01:56:27.395Z,33.10
2019-04-22T01:58:49.606Z,31.47
2019-04-22T02:01:30.827Z,36.67
2019-04-22T02:04:17.772Z,22.90
2019-04-22T02:06:30.349Z,33.07
2019-04-22T02:09:01.987Z,33.80
2019-04-22T02:11:34.751Z,31.33
2019-04-22T02:13:56.138Z,30.20
2019-04-22T02:16:27.837Z,30.37
2019-04-22T02:19:01.202Z,33.80
2019-04-22T02:21:20.502Z,24.87
2019-04-22T02:23:53.915Z,26.20
2019-04-22T02:26:31.287Z,27.80
2019-04-22T02:28:53.759Z,31.30
2019-04-22T02:36:51.283Z,28.37
2019-04-22T02:39:16.249Z,24.67
2019-04-22T02:41:31.109Z,44.57
2019-04-22T02:44:14.063Z,24.80
2019-04-22T02:49:24.714Z,33.93
2019-04-22T02:51:32.590Z,28.77
2019-04-22T02:54:31.674Z,29.10
2019-04-22T03:01:54.264Z,32.80
2019-04-22T03:04:09.663Z,22.77
2019-04-22T03:06:42.210Z,30.97
2019-04-22T03:09:16.564Z,29.10
2019-04-22T03:12:06.263Z,30.80
2019-04-22T03:19:37.008Z,23.80
2019-04-22T03:21:36.685Z,26.57
2019-04-22T03:29:10.614Z,22.83
2019-04-22T03:35:15.923Z,21.23
2019-04-22T03:44:38.559Z,21.47
2019-04-22T03:52:05.805Z,28.60
2019-04-22T04:02:02.599Z,22.67
2019-04-22T04:04:32.634Z,22.10
2019-04-22T04:09:42.608Z,33.67
2019-04-22T04:12:01.972Z,29.33
2019-04-22T04:14:38.105Z,33.30
2019-04-22T04:17:09.635Z,21.83
2019-04-22T04:21:57.860Z,22.70
2019-04-22T04:24:44.554Z,23.57
2019-04-22T04:29:46.568Z,30.40
2019-04-22T04:32:05.277Z,17.47
2019-04-22T04:34:45.123Z,22.57
2019-04-22T04:37:07.355Z,18.40
2019-04-22T04:42:05.022Z,19.30
2019-04-22T04:44:59.350Z,18.47
2019-04-22T04:52:14.525Z,21.77
2019-04-22T04:54:30.484Z,19.53
2019-04-22T04:56:57.009Z,18.73
2019-04-22T05:02:00.114Z,16.47
2019-04-22T05:04:42.123Z,17.50
2019-04-22T05:14:24.875Z,18.80
2019-04-22T05:19:49.908Z,15.63
2019-04-22T05:22:17.112Z,15.90
2019-04-22T05:24:43.970Z,16.50
2019-04-22T05:27:21.722Z,16.50
2019-04-22T05:30:05.770Z,14.97
2019-04-22T05:32:35.652Z,15.33
2019-04-22T05:37:14.822Z,16.83
2019-04-22T05:39:46.948Z,16.83
2019-04-22T05:42:16.338Z,17.90
2019-04-22T05:47:15.244Z,14.83
2019-04-22T05:49:45.876Z,19.67
2019-04-22T05:52:14.935Z,21.13
2019-04-22T05:54:50.547Z,14.67
2019-04-22T05:57:19.770Z,22.20
2019-04-22T05:59:46.219Z,18.27
2019-04-22T06:02:24.114Z,12.63
2019-04-22T06:04:54.949Z,17.60
2019-04-22T06:07:17.681Z,19.00
2019-04-22T06:09:55.378Z,20.20
2019-04-22T06:12:18.850Z,15.50
2019-04-22T06:14:54.043Z,14.17
2019-04-22T06:17:24.411Z,13.30
2019-04-22T06:19:52.448Z,16.13
2019-04-22T06:22:35.364Z,15.30
2019-04-22T06:24:59.014Z,18.30
2019-04-22T06:27:30.445Z,12.93
2019-04-22T06:29:54.753Z,14.40
2019-04-22T06:35:08.016Z,18.03
2019-04-22T06:37:23.525Z,15.17
2019-04-22T06:39:50.986Z,15.57
2019-04-22T06:42:28.389Z,16.20
2019-04-22T06:44:57.947Z,19.03
2019-04-22T06:47:49.093Z,16.33
2019-04-22T06:49:55.691Z,14.73
2019-04-22T06:52:22.377Z,15.50
2019-04-22T06:55:00.887Z,13.73
2019-04-22T06:57:25.491Z,14.37
2019-04-22T07:00:00.480Z,14.90
2019-04-22T07:02:39.023Z,17.30
2019-04-22T07:04:56.890Z,8.07
2019-04-22T07:07:25.182Z,16.40
2019-04-22T07:10:11.576Z,10.47
2019-04-22T07:12:30.504Z,17.90
2019-04-22T07:15:02.971Z,10.07
2019-04-22T07:17:32.818Z,9.33
2019-04-22T07:19:55.559Z,15.20
2019-04-22T07:22:28.184Z,10.07
2019-04-22T07:24:58.233Z,11.27
2019-04-22T07:27:30.123Z,9.83
2019-04-22T07:30:03.972Z,13.87
2019-04-22T07:32:53.371Z,11.67
2019-04-22T07:35:02.024Z,10.00
2019-04-22T07:39:56.262Z,7.60
2019-04-22T07:42:46.029Z,9.87
2019-04-22T07:47:58.961Z,13.00
2019-04-22T07:52:46.923Z,15.60
2019-04-22T07:55:25.861Z,8.27
2019-04-22T07:57:52.316Z,10.07
2019-04-22T08:00:27.622Z,8.67
2019-04-22T08:02:50.460Z,11.10
2019-04-22T08:05:24.534Z,8.27
2019-04-22T08:07:55.709Z,7.87
2019-04-22T08:12:50.805Z,6.07
2019-04-22T08:15:19.904Z,9.20
2019-04-22T08:20:22.631Z,7.20
2019-04-22T08:22:57.612Z,7.90
2019-04-22T08:25:16.725Z,6.77
2019-04-22T08:27:50.538Z,7.83
2019-04-22T08:30:28.358Z,14.87
2019-04-22T08:32:53.252Z,7.43
2019-04-22T08:35:29.226Z,13.87
2019-04-22T08:38:09.986Z,6.63
2019-04-22T08:40:32.882Z,10.93
2019-04-22T08:42:58.658Z,10.10
2019-04-22T08:45:25.333Z,6.77
2019-04-22T08:47:49.430Z,11.13
2019-04-22T08:50:20.372Z,5.53
2019-04-22T08:52:57.715Z,6.23
2019-04-22T08:55:26.338Z,10.53
2019-04-22T08:58:16.539Z,12.80
2019-04-22T09:00:44.207Z,6.53
2019-04-22T09:02:53.918Z,8.70
2019-04-22T09:05:37.414Z,10.53
2019-04-22T09:07:52.584Z,11.13
2019-04-22T09:10:24.383Z,11.37
2019-04-22T09:15:26.095Z,9.90
2019-04-22T09:17:55.848Z,8.00
2019-04-22T09:20:26.590Z,7.00
2019-04-22T09:25:24.138Z,10.30
2019-04-22T09:27:56.033Z,7.07
2019-04-22T09:30:27.519Z,6.20
2019-04-22T09:33:02.888Z,6.53
2019-04-22T09:35:31.513Z,7.10
2019-04-22T09:40:21.774Z,8.57
2019-04-22T09:43:00.661Z,9.03
2019-04-22T09:45:21.775Z,9.83
2019-04-22T09:48:03.099Z,9.60
2019-04-22T09:50:32.117Z,8.07
2019-04-22T09:55:21.705Z,7.93
2019-04-22T09:57:55.831Z,11.33
2019-04-22T10:00:36.225Z,11.73
2019-04-22T10:03:00.842Z,5.57
2019-04-22T10:05:29.430Z,9.93
2019-04-22T10:07:59.600Z,10.47
2019-04-22T10:10:30.352Z,11.60
2019-04-22T10:12:57.485Z,9.63
2019-04-22T10:15:25.211Z,10.90
2019-04-22T10:17:58.041Z,4.93
2019-04-22T10:20:31.660Z,9.43
2019-04-22T10:22:58.769Z,15.20
2019-04-22T10:25:29.597Z,16.70
2019-04-22T10:28:03.600Z,14.33
2019-04-22T10:30:39.166Z,6.17
2019-04-22T10:32:54.912Z,7.53
2019-04-22T10:35:15.490Z,8.53
2019-04-22T10:37:42.559Z,9.63
2019-04-22T10:40:17.775Z,11.23
2019-04-22T10:42:47.305Z,5.67
2019-04-22T10:45:16.544Z,7.97
2019-04-22T10:47:45.846Z,13.47
2019-04-22T10:50:14.600Z,8.80
2019-04-22T10:52:43.831Z,7.33
2019-04-22T10:55:13.808Z,19.23
2019-04-22T10:57:42.315Z,22.57
2019-04-22T11:00:13.607Z,7.00
2019-04-22T11:02:43.583Z,6.53
2019-04-22T11:05:12.448Z,8.33
2019-04-22T11:07:49.503Z,5.43
2019-04-22T11:10:29.348Z,14.53
2019-04-22T11:12:41.849Z,6.33
2019-04-22T11:15:13.756Z,7.53
2019-04-22T11:17:43.760Z,14.00
2019-04-22T11:20:13.478Z,11.00
2019-04-22T11:22:42.700Z,10.60
2019-04-22T11:25:11.929Z,13.70
2019-04-22T11:27:41.093Z,6.78
2019-04-22T11:30:11.104Z,10.43
2019-04-22T11:32:40.421Z,9.50
2019-04-22T11:35:09.923Z,7.77
2019-04-22T11:37:38.728Z,13.03
2019-04-22T11:40:19.343Z,15.10
2019-04-22T11:42:38.544Z,12.53
2019-04-22T11:45:09.056Z,6.90
2019-04-22T11:47:37.653Z,8.30
2019-04-22T11:50:12.099Z,7.07
2019-04-22T11:52:40.681Z,11.57
2019-04-22T11:55:12.868Z,9.87
2019-04-22T11:57:41.416Z,8.33
2019-04-22T12:00:12.980Z,8.73
2019-04-22T12:02:42.939Z,6.90
2019-04-22T12:05:12.226Z,10.38
2019-04-22T12:07:42.352Z,8.70
2019-04-22T12:10:26.548Z,10.77
2019-04-22T12:12:44.801Z,9.37
2019-04-22T12:15:12.717Z,8.63
2019-04-22T12:17:42.620Z,7.00
2019-04-22T12:20:14.546Z,16.50
2019-04-22T12:22:42.983Z,7.17
2019-04-22T12:25:12.456Z,4.15
2019-04-22T12:27:41.270Z,8.53
2019-04-22T12:30:14.864Z,3.58
2019-04-22T12:32:43.543Z,8.45
2019-04-22T12:35:13.689Z,9.58
2019-04-22T12:37:49.718Z,5.77
2019-04-22T12:40:29.351Z,7.53
2019-04-22T12:42:45.095Z,6.55
2019-04-22T12:45:14.261Z,5.60
2019-04-22T12:47:44.046Z,8.28
2019-04-22T12:50:23.459Z,10.98
2019-04-22T12:52:51.512Z,7.15
2019-04-22T12:55:17.320Z,7.08
2019-04-22T12:57:46.413Z,6.30
2019-04-22T13:00:17.549Z,9.28
2019-04-22T13:02:47.320Z,8.10
2019-04-22T13:05:16.499Z,4.95
2019-04-22T13:07:44.889Z,8.48
2019-04-22T13:10:15.750Z,3.50
2019-04-22T13:12:44.764Z,16.73
2019-04-22T13:15:18.019Z,13.47
2019-04-22T13:18:00.474Z,6.43
2019-04-22T13:20:20.304Z,7.10
2019-04-22T13:22:48.940Z,7.90
2019-04-22T13:25:17.744Z,7.47
2019-04-22T13:27:46.837Z,6.70
2019-04-22T13:30:18.671Z,3.17
2019-04-22T13:32:47.224Z,5.87
2019-04-22T13:35:18.514Z,3.80
2019-04-22T13:37:46.775Z,3.17
2019-04-22T13:40:16.921Z,4.10
2019-04-22T13:42:46.771Z,5.37
2019-04-22T13:45:15.919Z,4.77
2019-04-22T13:50:50.039Z,4.80
2019-04-22T13:53:33.804Z,10.80
2019-04-22T13:54:00.251Z,5.20
2019-04-22T13:55:50.285Z,4.83
2019-04-22T13:57:58.355Z,7.10
2019-04-22T14:00:20.623Z,6.50
2019-04-22T14:03:09.041Z,8.48
2019-04-22T14:05:40.417Z,6.97
2019-04-22T14:08:10.719Z,5.42
2019-04-22T14:10:40.465Z,7.22
2019-04-22T14:13:09.980Z,10.98
2019-04-22T14:15:38.471Z,6.15
2019-04-22T14:18:07.466Z,3.55
2019-04-22T14:20:36.769Z,7.58
2019-04-22T14:23:06.596Z,4.62
2019-04-22T14:25:36.763Z,6.67
2019-04-22T14:28:10.238Z,6.40
2019-04-22T14:30:36.770Z,7.80
2019-04-22T14:33:06.759Z,9.97
2019-04-22T14:35:35.509Z,8.40
2019-04-22T14:38:04.336Z,4.97
2019-04-22T14:40:36.200Z,5.40
2019-04-22T14:44:23.823Z,5.87
2019-04-22T14:46:08.056Z,4.67
2019-04-22T14:48:27.858Z,6.47
2019-04-22T14:50:51.762Z,7.20
2019-04-22T14:53:23.630Z,3.37
2019-04-22T14:55:36.720Z,5.25
2019-04-22T14:58:04.803Z,2.83
2019-04-22T15:00:33.963Z,7.33
2019-04-22T15:03:03.680Z,4.22
2019-04-22T15:05:32.344Z,2.72
2019-04-22T15:08:01.281Z,7.03
2019-04-22T15:10:29.751Z,3.33
2019-04-22T15:13:00.587Z,5.25
2019-04-22T15:15:49.293Z,5.50
2019-04-22T15:18:21.888Z,5.85
2019-04-22T15:20:56.428Z,5.90
2019-04-22T15:23:26.501Z,13.68
2019-04-22T15:25:56.657Z,3.70
2019-04-22T15:28:25.292Z,5.47
2019-04-22T15:30:53.683Z,4.33
2019-04-22T15:33:23.498Z,5.78
2019-04-22T15:35:53.308Z,7.83
2019-04-22T15:38:24.153Z,9.03
2019-04-22T15:40:52.522Z,6.92
2019-04-22T15:43:22.445Z,4.05
2019-04-22T15:45:52.717Z,5.53
2019-04-22T15:48:21.327Z,11.73
2019-04-22T15:50:50.762Z,3.75
2019-04-22T15:53:20.061Z,4.22
2019-04-22T15:55:48.648Z,5.70
2019-04-22T15:58:17.532Z,4.50
2019-04-22T16:00:57.670Z,6.03
2019-04-22T16:03:16.526Z,6.47
2019-04-22T16:05:46.064Z,6.30
2019-04-22T16:08:14.960Z,8.08
2019-04-22T16:10:43.937Z,5.25
2019-04-22T16:13:19.167Z,3.92
2019-04-22T16:15:42.762Z,3.33
2019-04-22T16:18:13.432Z,5.03
2019-04-22T16:20:41.399Z,4.03
2019-04-22T16:23:20.175Z,3.65
2019-04-22T16:25:49.571Z,4.33
2019-04-22T16:28:19.403Z,4.03
2019-04-22T16:30:48.966Z,3.42
2019-04-22T16:33:17.541Z,4.97
2019-04-22T16:35:46.786Z,5.10
2019-04-22T16:38:15.360Z,4.90
2019-04-22T16:40:44.904Z,5.67
2019-04-22T16:43:13.658Z,5.45
2019-04-22T16:45:43.383Z,3.80
2019-04-22T16:48:13.543Z,9.70
2019-04-22T16:50:43.630Z,5.08
2019-04-22T16:53:14.131Z,5.60
2019-04-22T16:55:42.424Z,5.92
2019-04-22T16:58:10.971Z,3.83
2019-04-22T17:00:40.603Z,5.83
2019-04-22T17:03:22.634Z,4.17
2019-04-22T17:06:08.028Z,7.17
2019-04-22T17:08:37.130Z,4.37
2019-04-22T17:11:05.625Z,6.17
2019-04-22T17:13:34.663Z,6.97
2019-04-22T17:16:04.886Z,7.03
2019-04-22T17:18:33.321Z,6.40
2019-04-22T17:21:04.984Z,6.17
2019-04-22T17:23:32.047Z,5.97
2019-04-22T17:26:00.825Z,5.03
2019-04-22T17:28:29.426Z,15.77
2019-04-22T17:30:57.879Z,5.17
2019-04-22T17:33:26.525Z,5.03
2019-04-22T17:35:55.080Z,8.10
2019-04-22T17:38:31.073Z,7.77
2019-04-22T17:41:07.725Z,6.60
2019-04-22T17:43:54.084Z,5.40
2019-04-22T17:46:12.057Z,10.60
2019-04-22T17:49:02.730Z,9.17
2019-04-22T17:56:32.460Z,10.67
2019-04-22T17:59:17.210Z,7.53
2019-04-22T18:01:29.699Z,15.17
2019-04-22T18:03:48.589Z,5.60
2019-04-22T18:06:35.037Z,14.23
2019-04-22T18:09:03.623Z,8.97
2019-04-22T18:11:34.097Z,9.67
2019-04-22T18:14:16.939Z,6.53
2019-04-22T18:16:32.596Z,7.23
2019-04-22T18:19:00.249Z,4.97
2019-04-22T18:21:28.867Z,10.87
2019-04-22T18:23:52.845Z,8.63
2019-04-22T18:26:24.351Z,6.63
2019-04-22T18:29:00.882Z,8.10
2019-04-22T18:31:21.445Z,5.70
2019-04-22T18:33:56.906Z,7.87
2019-04-22T18:36:29.296Z,8.50
2019-04-22T18:39:07.994Z,7.20
2019-04-22T18:41:30.776Z,7.13
2019-04-22T18:44:04.327Z,7.07
2019-04-22T18:46:34.880Z,4.00
2019-04-22T18:49:01.767Z,6.93
2019-04-22T18:51:46.857Z,5.37
2019-04-22T18:54:22.811Z,4.37
2019-04-22T18:56:56.068Z,4.37
2019-04-22T18:59:15.813Z,5.40
2019-04-22T19:01:38.079Z,6.40
2019-04-22T19:04:14.204Z,6.97
2019-04-22T19:07:00.385Z,13.50
2019-04-22T19:09:38.955Z,4.87
2019-04-22T19:12:08.635Z,8.47
2019-04-22T19:14:33.381Z,5.77
2019-04-22T19:17:12.194Z,5.23
2019-04-22T19:19:33.360Z,5.97
2019-04-22T19:22:02.268Z,7.27
2019-04-22T19:24:29.145Z,9.03
2019-04-22T19:27:02.951Z,6.50
2019-04-22T19:29:31.643Z,8.40
2019-04-22T19:32:01.794Z,4.63
2019-04-22T19:34:32.099Z,5.33
2019-04-22T19:37:02.150Z,10.93
2019-04-22T19:39:27.289Z,4.97
2019-04-22T19:42:09.754Z,6.00
2019-04-22T19:44:34.260Z,9.80
2019-04-22T19:47:21.098Z,6.60
2019-04-22T19:49:42.721Z,9.50
2019-04-22T19:54:29.043Z,6.43
2019-04-22T19:56:57.154Z,8.07
2019-04-22T19:59:25.056Z,8.23
2019-04-22T20:02:07.291Z,11.40
2019-04-22T20:04:52.458Z,7.77
2019-04-22T20:07:15.379Z,9.03
2019-04-22T20:09:55.328Z,11.47
2019-04-22T20:12:19.095Z,8.67
2019-04-22T20:14:49.624Z,6.90
2019-04-22T20:17:24.129Z,8.70
2019-04-22T20:19:56.099Z,5.27
2019-04-22T20:22:17.710Z,11.03
2019-04-22T20:24:43.468Z,7.50
2019-04-22T20:27:23.758Z,7.57
2019-04-22T20:29:54.138Z,5.73
2019-04-22T20:32:21.593Z,4.43
2019-04-22T20:34:59.135Z,3.90
2019-04-22T20:37:29.989Z,4.90
2019-04-22T20:39:57.208Z,9.53
2019-04-22T20:42:45.141Z,6.87
2019-04-22T20:44:51.671Z,5.93
2019-04-22T20:47:18.068Z,5.70
2019-04-22T20:49:54.676Z,5.13
2019-04-22T20:54:49.365Z,3.20
2019-04-22T20:57:26.298Z,3.80
2019-04-22T20:59:48.313Z,7.57
2019-04-22T21:02:17.961Z,4.03
2019-04-22T21:04:43.136Z,4.33
2019-04-22T21:07:19.599Z,5.73
2019-04-22T21:09:55.207Z,6.77
2019-04-22T21:12:17.650Z,7.47
2019-04-22T21:15:01.508Z,3.77
2019-04-22T21:17:24.912Z,3.77
2019-04-22T21:20:00.791Z,4.90
2019-04-22T21:22:30.826Z,6.87
2019-04-22T21:24:49.396Z,4.67
2019-04-22T21:27:28.855Z,6.53
2019-04-22T21:29:49.677Z,4.87
2019-04-22T21:32:25.186Z,9.23
2019-04-22T21:34:59.553Z,7.03
2019-04-22T21:37:36.054Z,5.93
2019-04-22T21:39:46.623Z,4.27
2019-04-22T21:42:26.636Z,10.27
2019-04-22T21:44:51.160Z,2.87
2019-04-22T21:47:29.050Z,7.67
2019-04-22T21:50:18.274Z,4.63
2019-04-22T21:52:28.207Z,5.97
2019-04-22T21:55:07.097Z,5.00
2019-04-22T21:57:35.150Z,2.77
2019-04-22T22:00:04.497Z,3.67
2019-04-22T22:02:39.316Z,3.57
2019-04-22T22:05:00.177Z,3.60
2019-04-22T22:07:22.000Z,3.27
2019-04-22T22:10:05.931Z,4.80
2019-04-22T22:12:42.626Z,7.43
2019-04-22T22:15:08.718Z,8.80
2019-04-22T22:17:35.579Z,5.37
2019-04-22T22:20:03.234Z,6.60
2019-04-22T22:25:07.785Z,4.33
2019-04-22T22:27:39.015Z,3.90
2019-04-22T22:30:34.858Z,3.87
2019-04-22T22:32:40.210Z,4.23
2019-04-22T22:35:08.323Z,7.33
2019-04-22T22:37:30.871Z,5.50
2019-04-22T22:39:55.384Z,2.13
2019-04-22T22:42:28.315Z,4.83
2019-04-22T22:44:54.458Z,3.87
2019-04-22T22:47:38.298Z,3.07
2019-04-22T22:50:12.194Z,6.27
2019-04-22T22:55:10.666Z,3.43
2019-04-22T22:57:40.103Z,7.53
2019-04-22T23:00:04.929Z,3.73
2019-04-22T23:02:49.546Z,5.20
2019-04-22T23:05:09.578Z,8.03
2019-04-22T23:07:40.569Z,3.53
2019-04-22T23:10:14.496Z,6.67
2019-04-22T23:12:48.386Z,12.20
2019-04-22T23:15:12.436Z,5.10
2019-04-22T23:17:25.750Z,3.17
2019-04-22T23:19:52.779Z,7.07
2019-04-22T23:22:28.445Z,3.17
2019-04-22T23:25:17.779Z,8.30
2019-04-22T23:27:40.165Z,7.67
2019-04-22T23:30:19.363Z,4.60
2019-04-22T23:33:01.129Z,11.67
2019-04-22T23:35:41.083Z,7.77
2019-04-22T23:38:16.459Z,11.00
2019-04-22T23:40:52.669Z,9.90
2019-04-22T23:45:50.433Z,4.90
2019-04-22T23:48:14.163Z,4.33
2019-04-22T23:50:49.534Z,4.57
2019-04-22T23:53:55.863Z,3.77
2019-04-22T23:56:17.483Z,4.93
2019-04-22T23:58:49.263Z,8.80
